createdAt,value
2023-03-23T00:00:34.100Z,950.1
2023-03-23T00:01:36.142Z,950.1
2023-03-23T00:02:38.219Z,950.1
2023-03-23T00:03:40.149Z,950.1
2023-03-23T00:04:42.304Z,950.1
2023-03-23T00:05:44.262Z,950.1
2023-03-23T00:06:46.631Z,950.1
2023-03-23T00:07:48.715Z,950
2023-03-23T00:08:59.138Z,950
2023-03-23T00:10:01.111Z,950.1
2023-03-23T00:11:03.087Z,950.1
2023-03-23T00:12:05.610Z,950.1
2023-03-23T00:13:07.868Z,950.1
2023-03-23T00:14:09.708Z,950.1
2023-03-23T00:15:11.770Z,950.1
2023-03-23T00:16:13.722Z,950.1
2023-03-23T00:17:15.889Z,950.1
2023-03-23T00:18:18.655Z,950.1
2023-03-23T00:19:22.037Z,950.1
2023-03-23T00:20:23.992Z,950.1
2023-03-23T00:21:25.841Z,950.1
2023-03-23T00:22:27.794Z,950.1
2023-03-23T00:23:29.564Z,950.1
2023-03-23T00:24:31.690Z,950.1
2023-03-23T00:25:34.162Z,950.1
2023-03-23T00:26:48.813Z,950.2
2023-03-23T00:27:50.870Z,950.2
2023-03-23T00:28:53.430Z,950.2
2023-03-23T00:29:55.482Z,950.2
2023-03-23T00:30:57.538Z,950.2
2023-03-23T00:31:59.634Z,950.2
2023-03-23T00:33:01.341Z,950.2
2023-03-23T00:34:04.012Z,950.2
2023-03-23T00:35:05.866Z,950.2
2023-03-23T00:36:07.949Z,950.2
2023-03-23T00:37:09.868Z,950.2
2023-03-23T00:38:13.055Z,950.3
2023-03-23T00:39:15.745Z,950.3
2023-03-23T00:40:18.090Z,950.3
2023-03-23T00:41:19.875Z,950.3
2023-03-23T00:42:21.685Z,950.3
2023-03-23T00:43:23.528Z,950.3
2023-03-23T00:44:25.693Z,950.3
2023-03-23T00:45:27.756Z,950.4
2023-03-23T00:46:29.693Z,950.4
2023-03-23T00:47:31.645Z,950.3
2023-03-23T00:48:34.221Z,950.3
2023-03-23T00:49:36.481Z,950.4
2023-03-23T00:50:39.566Z,950.3
2023-03-23T00:51:41.710Z,950.4
2023-03-23T00:52:44.284Z,950.4
2023-03-23T00:53:46.432Z,950.4
2023-03-23T00:54:48.615Z,950.4
2023-03-23T00:55:51.156Z,950.4
2023-03-23T00:56:53.312Z,950.4
2023-03-23T00:57:55.368Z,950.3
2023-03-23T00:58:57.328Z,950.4
2023-03-23T01:00:06.674Z,950.3
2023-03-23T01:01:08.601Z,950.4
2023-03-23T01:02:10.538Z,950.3
2023-03-23T01:03:13.252Z,950.4
2023-03-23T01:04:15.335Z,950.4
2023-03-23T01:05:17.348Z,950.4
2023-03-23T01:06:19.996Z,950.4
2023-03-23T01:07:22.164Z,950.3
2023-03-23T01:08:24.317Z,950.3
2023-03-23T01:09:26.301Z,950.3
2023-03-23T01:10:28.444Z,950.3
2023-03-23T01:11:30.477Z,950.3
2023-03-23T01:12:32.537Z,950.3
2023-03-23T01:13:34.327Z,950.3
2023-03-23T01:14:36.233Z,950.3
2023-03-23T01:15:38.949Z,950.3
2023-03-23T01:16:41.366Z,950.3
2023-03-23T01:17:43.724Z,950.3
2023-03-23T01:18:45.890Z,950.2
2023-03-23T01:19:47.836Z,950.2
2023-03-23T01:20:49.715Z,950.2
2023-03-23T01:21:51.757Z,950.2
2023-03-23T01:22:53.819Z,950.3
2023-03-23T01:23:56.053Z,950.2
2023-03-23T01:24:57.912Z,950.2
2023-03-23T01:26:00.105Z,950.2
2023-03-23T01:27:01.921Z,950.2
2023-03-23T01:28:03.975Z,950.2
2023-03-23T01:29:06.020Z,950.2
2023-03-23T01:30:08.393Z,950.2
2023-03-23T01:31:15.150Z,950.2
2023-03-23T01:32:16.998Z,950.2
2023-03-23T01:33:18.961Z,950.1
2023-03-23T01:34:21.323Z,950.1
2023-03-23T01:35:23.911Z,950.1
2023-03-23T01:36:26.047Z,950.1
2023-03-23T01:37:27.989Z,950.1
2023-03-23T01:38:30.044Z,950.1
2023-03-23T01:39:32.201Z,950.1
2023-03-23T01:40:34.880Z,950.1
2023-03-23T01:41:37.165Z,950.1
2023-03-23T01:42:39.072Z,950.1
2023-03-23T01:43:41.042Z,950.1
2023-03-23T01:44:43.102Z,950
2023-03-23T01:45:44.945Z,950
2023-03-23T01:46:46.914Z,950
2023-03-23T01:47:48.757Z,950
2023-03-23T01:48:50.912Z,950
2023-03-23T01:49:52.761Z,950
2023-03-23T01:50:54.507Z,950.1
2023-03-23T01:51:56.662Z,950
2023-03-23T01:52:58.508Z,950
2023-03-23T01:54:00.367Z,950
2023-03-23T01:55:02.414Z,950
2023-03-23T01:56:04.571Z,950
2023-03-23T01:57:06.864Z,950
2023-03-23T01:58:09.886Z,950
2023-03-23T01:59:11.870Z,950
2023-03-23T02:00:14.029Z,950
2023-03-23T02:01:16.176Z,950
2023-03-23T02:02:18.344Z,950
2023-03-23T02:03:20.288Z,950
2023-03-23T02:04:22.138Z,950
2023-03-23T02:05:23.986Z,950
2023-03-23T02:06:25.836Z,950
2023-03-23T02:07:28.812Z,950
2023-03-23T02:08:31.204Z,950
2023-03-23T02:09:34.151Z,950
2023-03-23T02:10:36.522Z,950
2023-03-23T02:11:38.473Z,950
2023-03-23T02:12:40.357Z,950
2023-03-23T02:13:42.382Z,950
2023-03-23T02:14:44.221Z,950
2023-03-23T02:15:46.888Z,950
2023-03-23T02:16:48.749Z,950
2023-03-23T02:17:50.587Z,950
2023-03-23T02:18:52.550Z,950
2023-03-23T02:19:54.549Z,950
2023-03-23T02:20:56.766Z,950
2023-03-23T02:21:58.816Z,950
2023-03-23T02:23:00.663Z,949.9
2023-03-23T02:24:02.825Z,949.9
2023-03-23T02:25:04.878Z,949.9
2023-03-23T02:26:07.441Z,950
2023-03-23T02:27:09.602Z,950
2023-03-23T02:28:11.578Z,950
2023-03-23T02:29:13.415Z,949.9
2023-03-23T02:30:15.658Z,950
2023-03-23T02:31:17.531Z,950
2023-03-23T02:32:19.252Z,950
2023-03-23T02:33:21.426Z,950
2023-03-23T02:34:23.166Z,950
2023-03-23T02:35:25.141Z,950
2023-03-23T02:36:27.165Z,950
2023-03-23T02:37:30.354Z,950
2023-03-23T02:38:32.914Z,950
2023-03-23T02:39:34.869Z,950
2023-03-23T02:40:37.855Z,950
2023-03-23T02:41:39.607Z,950
2023-03-23T02:42:42.160Z,950
2023-03-23T02:43:44.038Z,950
2023-03-23T02:44:45.971Z,950
2023-03-23T02:45:48.230Z,950.1
2023-03-23T02:46:50.079Z,950.1
2023-03-23T02:47:52.758Z,950.1
2023-03-23T02:48:54.586Z,950.1
2023-03-23T02:49:56.651Z,950.2
2023-03-23T02:50:58.798Z,950.2
2023-03-23T02:52:00.667Z,950.2
2023-03-23T02:53:02.540Z,950.2
2023-03-23T02:54:04.972Z,950.2
2023-03-23T02:55:07.734Z,950.2
2023-03-23T02:56:09.928Z,950.3
2023-03-23T02:57:12.355Z,950.3
2023-03-23T02:58:14.317Z,950.3
2023-03-23T02:59:16.294Z,950.3
2023-03-23T03:00:18.727Z,950.4
2023-03-23T03:01:20.687Z,950.4
2023-03-23T03:02:22.834Z,950.4
2023-03-23T03:03:26.426Z,950.4
2023-03-23T03:04:29.198Z,950.5
2023-03-23T03:05:31.668Z,950.5
2023-03-23T03:06:35.158Z,950.5
2023-03-23T03:07:37.714Z,950.5
2023-03-23T03:08:40.394Z,950.5
2023-03-23T03:09:43.370Z,950.5
2023-03-23T03:10:45.422Z,950.5
2023-03-23T03:11:47.480Z,950.5
2023-03-23T03:12:49.625Z,950.6
2023-03-23T03:13:51.691Z,950.6
2023-03-23T03:14:55.173Z,950.6
2023-03-23T03:15:57.336Z,950.6
2023-03-23T03:16:59.186Z,950.6
2023-03-23T03:18:01.343Z,950.6
2023-03-23T03:19:03.498Z,950.6
2023-03-23T03:20:07.094Z,950.7
2023-03-23T03:21:09.963Z,950.7
2023-03-23T03:22:12.745Z,950.7
2023-03-23T03:23:15.094Z,950.7
2023-03-23T03:24:17.053Z,950.6
2023-03-23T03:25:19.520Z,950.7
2023-03-23T03:26:21.871Z,950.7
2023-03-23T03:27:23.854Z,950.7
2023-03-23T03:28:26.189Z,950.7
2023-03-23T03:29:28.147Z,950.7
2023-03-23T03:30:30.945Z,950.7
2023-03-23T03:31:33.175Z,950.7
2023-03-23T03:32:35.007Z,950.6
2023-03-23T03:33:37.187Z,950.6
2023-03-23T03:34:39.445Z,950.6
2023-03-23T03:35:42.380Z,950.6
2023-03-23T03:36:45.083Z,950.6
2023-03-23T03:37:47.240Z,950.6
2023-03-23T03:38:49.500Z,950.6
2023-03-23T03:39:52.179Z,950.6
2023-03-23T03:40:54.839Z,950.6
2023-03-23T03:41:57.097Z,950.6
2023-03-23T03:42:58.972Z,950.6
2023-03-23T03:44:00.809Z,950.6
2023-03-23T03:45:02.855Z,950.6
2023-03-23T03:46:05.147Z,950.6
2023-03-23T03:47:07.374Z,950.6
2023-03-23T03:48:09.940Z,950.6
2023-03-23T03:49:12.199Z,950.6
2023-03-23T03:50:14.037Z,950.6
2023-03-23T03:51:15.898Z,950.6
2023-03-23T03:52:17.783Z,950.6
2023-03-23T03:53:29.742Z,950.6
2023-03-23T03:54:32.713Z,950.6
2023-03-23T03:55:35.458Z,950.6
2023-03-23T03:56:37.551Z,950.6
2023-03-23T03:57:39.801Z,950.6
2023-03-23T03:58:41.971Z,950.6
2023-03-23T03:59:44.947Z,950.5
2023-03-23T04:00:49.461Z,950.5
2023-03-23T04:01:52.043Z,950.5
2023-03-23T04:02:55.202Z,950.5
2023-03-23T04:03:57.052Z,950.5
2023-03-23T04:04:59.037Z,950.5
2023-03-23T04:06:02.289Z,950.5
2023-03-23T04:07:04.743Z,950.5
2023-03-23T04:08:10.185Z,950.5
2023-03-23T04:09:12.009Z,950.5
2023-03-23T04:10:33.444Z,950.5
2023-03-23T04:11:35.697Z,950.5
2023-03-23T04:12:37.969Z,950.5
2023-03-23T04:13:40.113Z,950.5
2023-03-23T04:14:41.971Z,950.5
2023-03-23T04:16:11.476Z,950.5
2023-03-23T04:17:14.058Z,950.5
2023-03-23T04:18:16.291Z,950.5
2023-03-23T04:19:19.159Z,950.5
2023-03-23T04:20:32.697Z,950.5
2023-03-23T04:21:36.890Z,950.5
2023-03-23T04:22:38.742Z,950.5
2023-03-23T04:23:40.592Z,950.5
2023-03-23T04:24:58.016Z,950.5
2023-03-23T04:26:00.689Z,950.5
2023-03-23T04:27:04.068Z,950.5
2023-03-23T04:28:05.815Z,950.5
2023-03-23T04:29:08.486Z,950.5
2023-03-23T04:30:11.866Z,950.5
2023-03-23T04:31:14.337Z,950.4
2023-03-23T04:32:18.984Z,950.4
2023-03-23T04:33:23.968Z,950.5
2023-03-23T04:35:14.461Z,950.4
2023-03-23T04:36:17.166Z,950.5
2023-03-23T04:37:19.061Z,950.5
2023-03-23T04:38:21.034Z,950.4
2023-03-23T04:39:22.882Z,950.4
2023-03-23T04:40:25.152Z,950.4
2023-03-23T04:41:26.928Z,950.4
2023-03-23T04:42:28.850Z,950.4
2023-03-23T04:43:30.695Z,950.4
2023-03-23T04:44:32.585Z,950.4
2023-03-23T04:45:34.406Z,950.4
2023-03-23T04:46:36.355Z,950.4
2023-03-23T04:47:38.219Z,950.4
2023-03-23T04:48:40.058Z,950.4
2023-03-23T04:49:41.981Z,950.4
2023-03-23T04:50:43.849Z,950.5
2023-03-23T04:51:46.416Z,950.5
2023-03-23T04:52:49.913Z,950.5
2023-03-23T04:53:52.305Z,950.6
2023-03-23T04:54:54.254Z,950.6
2023-03-23T04:55:56.169Z,950.6
2023-03-23T04:56:58.236Z,950.6
2023-03-23T04:58:00.605Z,950.6
2023-03-23T04:59:02.657Z,950.6
2023-03-23T05:00:04.506Z,950.6
2023-03-23T05:01:09.620Z,950.6
2023-03-23T05:02:15.273Z,950.6
2023-03-23T05:03:17.130Z,950.6
2023-03-23T05:04:19.056Z,950.6
2023-03-23T05:05:20.929Z,950.6
2023-03-23T05:06:22.761Z,950.7
2023-03-23T05:07:24.608Z,950.7
2023-03-23T05:08:26.564Z,950.7
2023-03-23T05:09:28.419Z,950.7
2023-03-23T05:10:30.364Z,950.7
2023-03-23T05:11:32.426Z,950.7
2023-03-23T05:12:34.377Z,950.7
2023-03-23T05:13:36.220Z,950.7
2023-03-23T05:14:38.209Z,950.7
2023-03-23T05:15:41.839Z,950.8
2023-03-23T05:16:44.125Z,950.7
2023-03-23T05:17:45.886Z,950.8
2023-03-23T05:18:47.764Z,950.7
2023-03-23T05:19:49.692Z,950.7
2023-03-23T05:20:51.636Z,950.8
2023-03-23T05:21:53.478Z,950.7
2023-03-23T05:22:55.338Z,950.7
2023-03-23T05:23:57.284Z,950.7
2023-03-23T05:24:59.128Z,950.7
2023-03-23T05:26:01.082Z,950.7
2023-03-23T05:27:02.942Z,950.7
2023-03-23T05:28:04.800Z,950.8
2023-03-23T05:29:06.534Z,950.9
2023-03-23T05:30:08.489Z,950.9
2023-03-23T05:31:10.331Z,950.9
2023-03-23T05:32:12.182Z,950.9
2023-03-23T05:33:14.035Z,950.9
2023-03-23T05:34:15.907Z,950.9
2023-03-23T05:35:17.941Z,951
2023-03-23T05:36:19.893Z,951
2023-03-23T05:37:21.846Z,951
2023-03-23T05:38:23.796Z,951
2023-03-23T05:39:25.659Z,951
2023-03-23T05:40:27.595Z,951
2023-03-23T05:41:29.457Z,951
2023-03-23T05:42:31.317Z,951
2023-03-23T05:43:33.156Z,951
2023-03-23T05:44:35.005Z,951
2023-03-23T05:45:36.957Z,951
2023-03-23T05:46:38.806Z,951.1
2023-03-23T05:47:43.211Z,951.1
2023-03-23T05:48:45.070Z,951.1
2023-03-23T05:49:46.948Z,951.1
2023-03-23T05:50:48.879Z,951.1
2023-03-23T05:51:50.815Z,951.1
2023-03-23T05:52:52.511Z,951.1
2023-03-23T05:53:54.410Z,951.1
2023-03-23T05:54:56.249Z,951
2023-03-23T05:55:58.109Z,951.1
2023-03-23T05:57:00.068Z,951.1
2023-03-23T05:58:01.916Z,951.1
2023-03-23T05:59:03.932Z,951.1
2023-03-23T06:00:06.138Z,951.1
2023-03-23T06:01:08.133Z,951.1
2023-03-23T06:02:10.041Z,951.1
2023-03-23T06:03:11.989Z,951.1
2023-03-23T06:04:13.955Z,951.1
2023-03-23T06:05:16.240Z,951.1
2023-03-23T06:06:18.359Z,951.1
2023-03-23T06:07:20.212Z,951.1
2023-03-23T06:08:22.058Z,951.1
2023-03-23T06:09:23.900Z,951.2
2023-03-23T06:10:25.666Z,951.2
2023-03-23T06:11:27.518Z,951.2
2023-03-23T06:12:29.361Z,951.2
2023-03-23T06:13:31.216Z,951.2
2023-03-23T06:14:32.949Z,951.2
2023-03-23T06:15:34.809Z,951.2
2023-03-23T06:16:36.651Z,951.2
2023-03-23T06:17:38.405Z,951.2
2023-03-23T06:18:40.257Z,951.2
2023-03-23T06:19:42.098Z,951.2
2023-03-23T06:20:48.213Z,951.2
2023-03-23T06:21:50.205Z,951.2
2023-03-23T06:22:52.161Z,951.2
2023-03-23T06:23:54.014Z,951.2
2023-03-23T06:24:55.950Z,951.2
2023-03-23T06:26:04.973Z,951.2
2023-03-23T06:27:07.541Z,951.2
2023-03-23T06:28:09.397Z,951.2
2023-03-23T06:29:11.346Z,951.2
2023-03-23T06:30:13.192Z,951.2
2023-03-23T06:31:15.050Z,951.2
2023-03-23T06:32:16.850Z,951.2
2023-03-23T06:33:21.234Z,951.2
2023-03-23T06:34:23.156Z,951.2
2023-03-23T06:35:25.008Z,951.2
2023-03-23T06:36:27.013Z,951.2
2023-03-23T06:37:28.722Z,951.3
2023-03-23T06:38:30.556Z,951.2
2023-03-23T06:39:32.405Z,951.3
2023-03-23T06:40:34.258Z,951.2
2023-03-23T06:41:36.225Z,951.3
2023-03-23T06:42:38.072Z,951.3
2023-03-23T06:43:39.912Z,951.3
2023-03-23T06:44:41.660Z,951.3
2023-03-23T06:45:43.710Z,951.3
2023-03-23T06:46:45.768Z,951.3
2023-03-23T06:47:47.614Z,951.3
2023-03-23T06:48:49.405Z,951.3
2023-03-23T06:49:51.221Z,951.4
2023-03-23T06:50:52.972Z,951.4
2023-03-23T06:51:54.728Z,951.4
2023-03-23T06:52:59.745Z,951.4
2023-03-23T06:54:01.467Z,951.4
2023-03-23T06:55:03.336Z,951.4
2023-03-23T06:56:05.183Z,951.4
2023-03-23T06:57:06.970Z,951.4
2023-03-23T06:58:08.777Z,951.4
2023-03-23T06:59:10.642Z,951.4
2023-03-23T07:00:12.393Z,951.4
2023-03-23T07:01:14.125Z,951.4
2023-03-23T07:02:16.028Z,951.4
2023-03-23T07:03:17.837Z,951.4
2023-03-23T07:04:19.531Z,951.5
2023-03-23T07:05:21.426Z,951.5
2023-03-23T07:06:23.173Z,951.4
2023-03-23T07:07:25.084Z,951.5
2023-03-23T07:08:26.872Z,951.5
2023-03-23T07:09:43.603Z,951.4
2023-03-23T07:10:45.528Z,951.5
2023-03-23T07:11:47.472Z,951.5
2023-03-23T07:12:49.327Z,951.5
2023-03-23T07:13:51.286Z,951.4
2023-03-23T07:14:53.029Z,951.5
2023-03-23T07:15:54.910Z,951.4
2023-03-23T07:16:56.722Z,951.5
2023-03-23T07:17:58.676Z,951.4
2023-03-23T07:19:00.626Z,951.5
2023-03-23T07:20:02.503Z,951.4
2023-03-23T07:21:04.327Z,951.4
2023-03-23T07:22:06.206Z,951.5
2023-03-23T07:23:08.115Z,951.5
2023-03-23T07:24:09.997Z,951.5
2023-03-23T07:25:11.944Z,951.5
2023-03-23T07:26:14.100Z,951.5
2023-03-23T07:27:16.202Z,951.5
2023-03-23T07:28:18.009Z,951.5
2023-03-23T07:29:19.864Z,951.5
2023-03-23T07:30:29.902Z,951.5
2023-03-23T07:31:31.672Z,951.4
2023-03-23T07:32:33.394Z,951.5
2023-03-23T07:33:35.342Z,951.4
2023-03-23T07:34:37.130Z,951.4
2023-03-23T07:35:39.073Z,951.4
2023-03-23T07:36:40.904Z,951.4
2023-03-23T07:37:42.706Z,951.5
2023-03-23T07:38:44.513Z,951.5
2023-03-23T07:39:46.463Z,951.5
2023-03-23T07:40:48.306Z,951.5
2023-03-23T07:41:50.149Z,951.5
2023-03-23T07:42:52.091Z,951.5
2023-03-23T07:43:53.986Z,951.6
2023-03-23T07:44:55.803Z,951.6
2023-03-23T07:45:57.854Z,951.5
2023-03-23T07:46:59.602Z,951.6
2023-03-23T07:48:21.245Z,951.5
2023-03-23T07:49:23.877Z,951.6
2023-03-23T07:50:25.737Z,951.6
2023-03-23T07:51:27.485Z,951.6
2023-03-23T07:52:29.116Z,951.6
2023-03-23T07:53:30.892Z,951.5
2023-03-23T07:54:32.895Z,951.6
2023-03-23T07:55:38.247Z,951.5
2023-03-23T07:56:40.008Z,951.6
2023-03-23T07:57:41.848Z,951.6
2023-03-23T07:58:43.810Z,951.6
2023-03-23T07:59:45.553Z,951.6
2023-03-23T08:00:47.601Z,951.6
2023-03-23T08:01:49.516Z,951.6
2023-03-23T08:02:51.406Z,951.6
2023-03-23T08:03:53.363Z,951.6
2023-03-23T08:05:00.766Z,951.6
2023-03-23T08:06:02.603Z,951.6
2023-03-23T08:07:04.449Z,951.6
2023-03-23T08:08:06.389Z,951.6
2023-03-23T08:09:08.222Z,951.6
2023-03-23T08:10:10.152Z,951.6
2023-03-23T08:11:12.351Z,951.6
2023-03-23T08:12:14.198Z,951.6
2023-03-23T08:13:16.208Z,951.6
2023-03-23T08:14:22.272Z,951.6
2023-03-23T08:15:24.358Z,951.6
2023-03-23T08:16:26.312Z,951.6
2023-03-23T08:17:28.064Z,951.6
2023-03-23T08:18:29.802Z,951.6
2023-03-23T08:19:31.589Z,951.6
2023-03-23T08:20:33.404Z,951.6
2023-03-23T08:21:35.159Z,951.6
2023-03-23T08:22:53.594Z,951.6
2023-03-23T08:23:55.336Z,951.6
2023-03-23T08:24:56.989Z,951.6
2023-03-23T08:25:58.688Z,951.6
2023-03-23T08:27:00.482Z,951.7
2023-03-23T08:28:02.448Z,951.6
2023-03-23T08:29:04.182Z,951.6
2023-03-23T08:30:06.135Z,951.6
2023-03-23T08:31:08.001Z,951.6
2023-03-23T08:32:09.793Z,951.6
2023-03-23T08:33:11.692Z,951.6
2023-03-23T08:34:14.252Z,951.6
2023-03-23T08:35:16.102Z,951.6
2023-03-23T08:36:18.077Z,951.6
2023-03-23T08:37:19.910Z,951.6
2023-03-23T08:38:21.844Z,951.5
2023-03-23T08:39:23.939Z,951.5
2023-03-23T08:40:25.642Z,951.5
2023-03-23T08:41:27.533Z,951.5
2023-03-23T08:42:29.558Z,951.5
2023-03-23T08:43:31.315Z,951.6
2023-03-23T08:44:33.257Z,951.6
2023-03-23T08:45:35.112Z,951.5
2023-03-23T08:46:36.967Z,951.5
2023-03-23T08:47:38.818Z,951.5
2023-03-23T08:48:40.768Z,951.5
2023-03-23T08:49:42.625Z,951.5
2023-03-23T08:50:44.569Z,951.5
2023-03-23T08:51:46.430Z,951.5
2023-03-23T08:52:48.269Z,951.5
2023-03-23T08:53:50.334Z,951.5
2023-03-23T08:54:52.107Z,951.5
2023-03-23T08:55:54.009Z,951.5
2023-03-23T08:56:55.892Z,951.5
2023-03-23T08:57:57.732Z,951.5
2023-03-23T08:58:59.578Z,951.5
2023-03-23T09:00:01.641Z,951.5
2023-03-23T09:01:03.591Z,951.5
2023-03-23T09:02:05.442Z,951.5
2023-03-23T09:03:07.176Z,951.5
2023-03-23T09:04:08.972Z,951.5
2023-03-23T09:05:10.886Z,951.5
2023-03-23T09:06:12.736Z,951.5
2023-03-23T09:07:14.577Z,951.5
2023-03-23T09:08:16.329Z,951.5
2023-03-23T09:09:18.188Z,951.5
2023-03-23T09:10:20.139Z,951.5
2023-03-23T09:11:21.986Z,951.5
2023-03-23T09:12:23.811Z,951.5
2023-03-23T09:13:25.793Z,951.5
2023-03-23T09:14:27.738Z,951.5
2023-03-23T09:15:53.303Z,951.5
2023-03-23T09:16:57.448Z,951.5
2023-03-23T09:18:02.476Z,951.5
2023-03-23T09:19:04.433Z,951.5
2023-03-23T09:20:06.208Z,951.5
2023-03-23T09:21:19.604Z,951.5
2023-03-23T09:22:25.543Z,951.5
2023-03-23T09:23:27.297Z,951.5
2023-03-23T09:24:29.043Z,951.5
2023-03-23T09:25:30.816Z,951.5
2023-03-23T09:26:32.641Z,951.5
2023-03-23T09:27:34.523Z,951.5
2023-03-23T09:28:36.657Z,951.4
2023-03-23T09:29:38.567Z,951.4
2023-03-23T09:30:53.758Z,951.4
2023-03-23T09:31:55.617Z,951.4
2023-03-23T09:32:57.465Z,951.4
2023-03-23T09:33:59.117Z,951.4
2023-03-23T09:35:00.891Z,951.4
2023-03-23T09:36:02.775Z,951.4
2023-03-23T09:37:04.653Z,951.4
2023-03-23T09:38:06.518Z,951.4
2023-03-23T09:39:08.287Z,951.4
2023-03-23T09:40:10.218Z,951.4
2023-03-23T09:41:12.066Z,951.4
2023-03-23T09:42:13.915Z,951.4
2023-03-23T09:43:15.677Z,951.4
2023-03-23T09:44:17.599Z,951.4
2023-03-23T09:45:19.458Z,951.4
2023-03-23T09:46:21.435Z,951.4
2023-03-23T09:47:23.265Z,951.3
2023-03-23T09:48:25.111Z,951.4
2023-03-23T09:49:27.020Z,951.4
2023-03-23T09:50:28.909Z,951.4
2023-03-23T09:51:30.832Z,951.4
2023-03-23T09:52:32.719Z,951.4
2023-03-23T09:53:34.576Z,951.4
2023-03-23T09:54:36.348Z,951.3
2023-03-23T09:55:38.117Z,951.3
2023-03-23T09:56:40.123Z,951.3
2023-03-23T09:57:41.872Z,951.3
2023-03-23T09:58:47.121Z,951.3
2023-03-23T09:59:48.942Z,951.3
2023-03-23T10:00:51.153Z,951.3
2023-03-23T10:01:53.054Z,951.3
2023-03-23T10:02:54.801Z,951.3
2023-03-23T10:03:56.654Z,951.3
2023-03-23T10:04:58.402Z,951.2
2023-03-23T10:06:00.251Z,951.3
2023-03-23T10:07:02.102Z,951.3
2023-03-23T10:08:03.945Z,951.3
2023-03-23T10:09:05.701Z,951.3
2023-03-23T10:10:07.372Z,951.2
2023-03-23T10:11:09.194Z,951.3
2023-03-23T10:12:11.051Z,951.2
2023-03-23T10:13:12.897Z,951.2
2023-03-23T10:14:14.880Z,951.2
2023-03-23T10:15:16.689Z,951.2
2023-03-23T10:16:18.548Z,951.3
2023-03-23T10:17:20.423Z,951.2
2023-03-23T10:18:22.451Z,951.2
2023-03-23T10:19:24.407Z,951.3
2023-03-23T10:20:26.260Z,951.2
2023-03-23T10:21:28.036Z,951.2
2023-03-23T10:22:29.849Z,951.2
2023-03-23T10:23:31.700Z,951.2
2023-03-23T10:24:33.549Z,951.1
2023-03-23T10:25:35.401Z,951.1
2023-03-23T10:26:37.249Z,951.1
2023-03-23T10:27:38.992Z,951.1
2023-03-23T10:28:40.855Z,951.1
2023-03-23T10:29:42.834Z,951.1
2023-03-23T10:30:45.371Z,951.1
2023-03-23T10:31:47.225Z,951.1
2023-03-23T10:32:49.163Z,951.1
2023-03-23T10:33:51.120Z,951.1
2023-03-23T10:34:52.968Z,951.1
2023-03-23T10:35:54.846Z,951.1
2023-03-23T10:36:56.787Z,951.1
2023-03-23T10:37:58.439Z,951.1
2023-03-23T10:39:00.267Z,951.1
2023-03-23T10:40:02.116Z,951.1
2023-03-23T10:41:03.974Z,951.1
2023-03-23T10:42:05.812Z,951
2023-03-23T10:43:07.676Z,951
2023-03-23T10:44:09.556Z,951.1
2023-03-23T10:45:11.499Z,951
2023-03-23T10:46:33.188Z,951
2023-03-23T10:47:46.605Z,951
2023-03-23T10:48:48.489Z,951
2023-03-23T10:49:50.319Z,951
2023-03-23T10:50:52.232Z,951
2023-03-23T10:51:54.123Z,951
2023-03-23T10:52:55.867Z,951
2023-03-23T10:53:57.807Z,951
2023-03-23T10:54:59.587Z,951
2023-03-23T10:56:01.411Z,951
2023-03-23T10:57:04.434Z,951
2023-03-23T10:58:06.650Z,951
2023-03-23T10:59:08.604Z,951
2023-03-23T11:00:10.450Z,951
2023-03-23T11:01:12.228Z,951
2023-03-23T11:02:29.902Z,950.9
2023-03-23T11:03:31.885Z,950.9
2023-03-23T11:04:33.667Z,950.9
2023-03-23T11:05:35.553Z,950.9
2023-03-23T11:06:37.316Z,951
2023-03-23T11:07:39.211Z,950.9
2023-03-23T11:08:41.108Z,950.9
2023-03-23T11:09:43.095Z,950.9
2023-03-23T11:10:44.922Z,950.9
2023-03-23T11:11:46.779Z,950.9
2023-03-23T11:12:48.629Z,950.9
2023-03-23T11:13:50.289Z,950.9
2023-03-23T11:14:52.148Z,950.9
2023-03-23T11:15:53.894Z,950.8
2023-03-23T11:17:15.661Z,950.9
2023-03-23T11:18:17.835Z,950.8
2023-03-23T11:19:19.689Z,950.8
2023-03-23T11:20:21.535Z,950.8
2023-03-23T11:21:23.223Z,950.7
2023-03-23T11:22:25.148Z,950.7
2023-03-23T11:23:26.999Z,950.7
2023-03-23T11:24:28.842Z,950.7
2023-03-23T11:25:30.804Z,950.7
2023-03-23T11:26:32.656Z,950.7
2023-03-23T11:27:34.604Z,950.7
2023-03-23T11:28:36.450Z,950.7
2023-03-23T11:29:38.291Z,950.7
2023-03-23T11:30:43.133Z,950.7
2023-03-23T11:31:44.995Z,950.7
2023-03-23T11:32:46.856Z,950.6
2023-03-23T11:34:06.582Z,950.6
2023-03-23T11:35:16.724Z,950.6
2023-03-23T11:36:18.522Z,950.6
2023-03-23T11:37:20.431Z,950.6
2023-03-23T11:38:22.378Z,950.6
2023-03-23T11:39:24.226Z,950.6
2023-03-23T11:40:26.186Z,950.6
2023-03-23T11:41:28.030Z,950.6
2023-03-23T11:42:29.890Z,950.6
2023-03-23T11:43:31.735Z,950.5
2023-03-23T11:44:33.692Z,950.5
2023-03-23T11:45:35.501Z,950.5
2023-03-23T11:46:38.922Z,950.5
2023-03-23T11:47:40.772Z,950.5
2023-03-23T11:48:42.751Z,950.4
2023-03-23T11:49:44.579Z,950.5
2023-03-23T11:50:46.530Z,950.5
2023-03-23T11:51:48.381Z,950.5
2023-03-23T11:52:50.199Z,950.5
2023-03-23T11:53:52.091Z,950.5
2023-03-23T11:54:53.932Z,950.4
2023-03-23T11:55:55.890Z,950.4
2023-03-23T11:56:57.728Z,950.4
2023-03-23T11:57:59.682Z,950.3
2023-03-23T11:59:01.625Z,950.3
2023-03-23T12:00:03.495Z,950.3
2023-03-23T12:01:05.336Z,950.4
2023-03-23T12:02:17.645Z,950.3
2023-03-23T12:03:19.481Z,950.3
2023-03-23T12:04:21.441Z,950.3
2023-03-23T12:05:23.274Z,950.3
2023-03-23T12:06:25.132Z,950.3
2023-03-23T12:07:27.898Z,950.3
2023-03-23T12:08:29.799Z,950.3
2023-03-23T12:09:31.701Z,950.3
2023-03-23T12:11:58.575Z,950.3
2023-03-23T12:13:00.394Z,950.4
2023-03-23T12:14:02.170Z,950.3
2023-03-23T12:15:04.100Z,950.3
2023-03-23T12:16:05.950Z,950.3
2023-03-23T12:17:07.701Z,950.2
2023-03-23T12:18:09.554Z,950.3
2023-03-23T12:19:11.401Z,950.2
2023-03-23T12:20:13.269Z,950.3
2023-03-23T12:21:15.281Z,950.3
2023-03-23T12:22:17.047Z,950.2
2023-03-23T12:23:18.896Z,950.3
2023-03-23T12:24:20.955Z,950.3
2023-03-23T12:25:22.802Z,950.2
2023-03-23T12:26:24.664Z,950.2
2023-03-23T12:27:26.513Z,950.3
2023-03-23T12:28:28.354Z,950.3
2023-03-23T12:29:30.201Z,950.2
2023-03-23T12:30:31.994Z,950.2
2023-03-23T12:31:33.812Z,950.2
2023-03-23T12:32:35.805Z,950.2
2023-03-23T12:33:37.711Z,950.2
2023-03-23T12:34:39.474Z,950.3
2023-03-23T12:35:41.461Z,950.2
2023-03-23T12:36:43.509Z,950.2
2023-03-23T12:37:45.211Z,950.2
2023-03-23T12:38:47.164Z,950.2
2023-03-23T12:39:49.010Z,950.2
2023-03-23T12:40:55.230Z,950.2
2023-03-23T12:41:58.809Z,950.2
2023-03-23T12:43:00.705Z,950.2
2023-03-23T12:44:02.450Z,950.2
2023-03-23T12:45:04.314Z,950.2
2023-03-23T12:46:06.031Z,950.2
2023-03-23T12:47:08.098Z,950.1
2023-03-23T12:48:09.854Z,950.2
2023-03-23T12:49:11.620Z,950.1
2023-03-23T12:50:13.377Z,950.1
2023-03-23T12:51:15.228Z,950.1
2023-03-23T12:52:17.043Z,950.1
2023-03-23T12:53:18.798Z,950.1
2023-03-23T12:54:20.746Z,950.1
2023-03-23T12:55:22.370Z,950.1
2023-03-23T12:56:24.248Z,950.1
2023-03-23T12:57:27.116Z,950.1
2023-03-23T12:58:28.961Z,950.1
2023-03-23T12:59:30.900Z,950.1
2023-03-23T13:00:32.870Z,950.1
2023-03-23T13:02:36.092Z,950.1
2023-03-23T13:03:37.909Z,950
2023-03-23T13:04:39.662Z,950.1
2023-03-23T13:05:42.090Z,950.1
2023-03-23T13:06:44.213Z,950.1
2023-03-23T13:07:46.032Z,950
2023-03-23T13:08:48.073Z,950
2023-03-23T13:09:49.925Z,950.1
2023-03-23T13:10:51.693Z,950.1
2023-03-23T13:11:53.485Z,950
2023-03-23T13:12:55.176Z,950
2023-03-23T13:13:56.952Z,950
2023-03-23T13:14:58.795Z,949.9
2023-03-23T13:16:00.617Z,949.9
2023-03-23T13:17:02.485Z,950
2023-03-23T13:18:04.328Z,950
2023-03-23T13:19:06.373Z,949.9
2023-03-23T13:20:08.296Z,949.9
2023-03-23T13:21:10.197Z,949.9
2023-03-23T13:22:11.980Z,949.9
2023-03-23T13:23:13.802Z,949.9
2023-03-23T13:24:15.567Z,949.9
2023-03-23T13:25:17.475Z,949.9
2023-03-23T13:26:19.236Z,949.9
2023-03-23T13:27:20.999Z,949.9
2023-03-23T13:28:22.827Z,949.9
2023-03-23T13:29:24.621Z,949.9
2023-03-23T13:30:26.340Z,949.9
2023-03-23T13:31:28.163Z,949.9
2023-03-23T13:32:30.125Z,949.9
2023-03-23T13:33:31.968Z,949.9
2023-03-23T13:34:33.817Z,949.9